Latest Weather Observations for Glen Innes Airport

IDN60801

Issued at 7:03 pm EST Friday 28 August 2015 (issued every 30 minutes, with the page automatically refreshed every 10 minutes)

About weather observations | Map of weather stations | Latest weather observations for NSW | Other Formats
Station Details ID: 056243 Name: GLEN INNES AIRPORT AWS Lat: -29.68 Lon: 151.69 Height: 1044.3 m
Data from the previous 72 hours. | See also: Recent months at Glen Innes Airport
Date/Time
EST
Temp
°C
App
Temp
°C
Dew
Point
Rel
Hum
%
Delta-T
°C
Wind Press
QNH
hPa
Press
MSL
hPa
Rain
since 9 am
mm
Dir
 
Spd
km/h
Gust
km/h
Spd
kts
Gust
kts
28/07:00pm 5.2 1.9 0.2 70 2.0 W 7 9 4 5 1023.3 1023.5 0.0
28/06:30pm 5.9 2.3 0.9 70 2.1 WSW 9 11 5 6 1022.9 1023.2 0.0
28/06:00pm 7.0 2.9 -0.2 60 3.0 WSW 11 11 6 6 1022.4 1022.6 0.0
28/05:30pm 8.8 4.8 0.5 56 3.6 WSW 11 15 6 8 1022.3 1022.5 0.0
28/05:00pm 10.4 5.5 -0.4 47 4.6 WSW 15 20 8 11 1021.9 1022.2 0.0
28/04:30pm 11.0 5.5 0.7 49 4.5 SW 19 26 10 14 1021.7 1022.0 0.0
28/04:00pm 11.3 6.7 1.3 50 4.5 SW 15 26 8 14 1021.5 1021.7 0.0
28/03:30pm 11.8 6.9 1.7 50 4.6 WSW 17 24 9 13 1021.5 1021.7 0.0
28/03:00pm 11.7 6.4 1.9 51 4.4 WSW 19 28 10 15 1021.5 1021.7 0.0
28/02:30pm 11.7 5.9 0.2 45 5.0 WSW 20 32 11 17 1021.5 1021.7 0.0
28/02:00pm 11.9 4.4 1.3 48 4.7 W 30 39 16 21 1021.6 1021.8 0.0
28/01:30pm 11.9 5.5 0.7 46 5.0 WSW 24 39 13 21 1021.7 1022.0 0.0
28/01:00pm 11.4 4.4 -0.4 44 5.1 WSW 26 37 14 20 1022.0 1022.3 0.0
28/12:30pm 11.2 4.1 1.2 50 4.5 SW 28 35 15 19 1022.6 1022.9 0.0
28/12:00pm 11.2 3.5 0.0 46 4.8 WSW 30 39 16 21 1023.1 1023.4 0.0
28/11:30am 10.9 4.3 2.0 54 4.0 WSW 26 39 14 21 1023.5 1023.8 0.0
28/11:00am 10.3 2.9 4.0 65 3.0 WSW 32 39 17 21 1023.8 1024.1 0.0
28/10:30am 9.8 2.3 3.3 64 3.0 WSW 32 43 17 23 1023.9 1024.2 0.0
28/10:00am 9.2 1.7 3.6 68 2.6 WSW 32 41 17 22 1023.8 1024.1 0.0
28/09:30am 8.4 1.7 3.8 73 2.1 W 28 35 15 19 1023.8 1024.1 0.0
28/09:00am 7.5 1.7 4.3 80 1.5 WSW 24 30 13 16 1023.7 1024.0 5.6
28/08:51am 7.3 1.5 4.6 83 1.3 WSW 24 32 13 17 1023.7 1024.0 5.6
28/08:30am 6.7 1.3 4.7 87 0.9 WSW 22 30 12 16 1023.6 1023.9 5.6
28/08:00am 6.1 0.7 4.3 88 0.8 WSW 22 30 12 16 1023.4 1023.7 5.6
28/07:30am 5.7 0.2 4.2 90 0.7 WSW 22 28 12 15 1023.1 1023.4 5.6
28/07:00am 5.1 -0.4 3.9 92 0.5 WSW 22 28 12 15 1022.8 1023.1 5.6
28/06:30am 4.9 -0.7 3.7 92 0.5 WSW 22 30 12 16 1022.5 1022.7 5.6
28/06:00am 4.7 0.2 4.0 95 0.3 W 17 20 9 11 1022.2 1022.4 5.6
28/05:30am 4.7 -0.4 4.0 95 0.3 WSW 20 26 11 14 1022.0 1022.3 5.6
28/05:00am 5.2 0.1 4.3 94 0.4 WSW 20 26 11 14 1021.9 1022.2 5.6
28/04:30am 5.2 1.1 4.5 95 0.3 WSW 15 20 8 11 1021.6 1021.8 5.6
28/04:00am 5.1 1.4 4.7 97 0.2 WSW 13 19 7 10 1021.5 1021.7 5.6
28/03:33am 3.6 0.4 3.0 96 0.3 WSW 9 15 5 8 1021.4 1021.6 5.6
28/03:30am 3.6 0.0 3.0 96 0.3 WSW 11 15 6 8 1021.4 1021.6 5.6
28/03:24am 3.8 0.2 3.2 96 0.3 WSW 11 15 6 8 1021.4 1021.6 5.6
28/03:05am 3.2 -0.1 2.5 95 0.3 WNW 9 11 5 6 1021.4 1021.6 5.6
28/03:00am 3.5 0.3 2.8 95 0.3 WNW 9 11 5 6 1021.5 1021.7 5.6
28/02:45am 4.0 0.8 3.3 95 0.3 W 9 11 5 6 1021.5 1021.7 5.6
28/02:30am 4.4 1.3 3.7 95 0.3 W 9 11 5 6 1021.7 1022.0 5.6
28/02:00am 5.1 1.8 4.7 97 0.2 W 11 17 6 9 1021.8 1022.1 5.6
28/01:41am 4.4 1.7 3.5 94 0.4 WNW 7 7 4 4 1021.8 1022.1 5.6
28/01:30am 5.2 2.8 4.5 95 0.3 WSW 6 7 3 4 1022.0 1022.3 5.6
28/01:03am 5.6 2.3 4.7 94 0.4 SW 11 13 6 7 1022.3 1022.5 5.6
28/01:00am 5.7 2.8 4.8 94 0.4 SW 9 13 5 7 1022.3 1022.5 5.6
28/12:30am 6.2 3.4 5.2 93 0.5 WSW 9 15 5 8 1022.3 1022.5 5.6
28/12:00am 6.9 3.5 5.8 93 0.5 WSW 13 17 7 9 1022.5 1022.7 5.6
 
Date/Time
EST
Temp
°C
App
Temp
°C
Dew
Point
Rel
Hum
%
Delta-T
°C
Wind Press
QNH
hPa
Press
MSL
hPa
Rain
since 9 am
mm
Dir
 
Spd
km/h
Gust
km/h
Spd
kts
Gust
kts
27/11:30pm 7.2 2.7 6.0 92 0.6 WSW 19 24 10 13 1022.6 1022.9 5.6
27/11:00pm 7.5 3.2 6.8 95 0.3 WSW 19 20 10 11 1022.6 1022.9 5.6
27/10:30pm 7.5 4.7 6.8 95 0.3 WSW 11 15 6 8 1022.6 1022.9 5.6
27/10:00pm 7.6 4.8 6.9 95 0.3 W 11 13 6 7 1022.7 1023.0 5.4
27/09:30pm 7.7 5.3 6.8 94 0.4 W 9 13 5 7 1022.5 1022.7 5.4
27/09:00pm 7.7 4.5 7.0 95 0.3 WSW 13 15 7 8 1022.5 1022.7 5.4
27/08:30pm 7.7 4.1 6.8 94 0.4 WSW 15 17 8 9 1022.3 1022.5 5.4
27/08:00pm 7.8 4.3 7.1 95 0.3 W 15 17 8 9 1022.3 1022.5 5.2
27/07:30pm 7.9 5.1 7.1 95 0.4 WNW 11 13 6 7 1021.8 1022.1 4.8
27/07:00pm 7.8 5.4 7.1 95 0.3 W 9 13 5 7 1021.5 1021.7 4.6
27/06:50pm 7.8 5.4 7.1 95 0.3 W 9 13 5 7 1021.5 1021.7 4.4
27/06:36pm 7.8 5.0 7.1 95 0.3 W 11 13 6 7 1021.4 1021.6 4.2
27/06:30pm 7.7 4.9 7.0 95 0.3 W 11 13 6 7 1021.4 1021.6 4.2
27/06:06pm 7.7 5.3 7.0 95 0.3 W 9 11 5 6 1021.2 1021.4 4.2
27/06:00pm 7.6 5.2 6.9 95 0.3 WNW 9 11 5 6 1020.9 1021.2 4.2
27/05:30pm 7.6 4.8 6.9 95 0.3 WNW 11 13 6 7 1020.9 1021.2 3.8
27/05:00pm 7.8 4.2 6.9 94 0.4 W 15 19 8 10 1020.6 1020.8 3.6
27/04:56pm 7.9 4.3 6.8 93 0.5 W 15 19 8 10 1020.6 1020.8 3.6
27/04:30pm 8.3 5.6 7.2 93 0.5 W 11 13 6 7 1020.5 1020.7 3.6
27/04:00pm 8.1 4.9 6.9 92 0.6 W 13 15 7 8 1020.5 1020.7 3.4
27/03:30pm 8.0 4.8 6.9 93 0.5 WSW 13 15 7 8 1020.5 1020.7 3.2
27/03:00pm 7.9 4.7 6.8 93 0.5 WSW 13 17 7 9 1020.5 1020.7 2.8
27/02:59pm 8.0 4.9 7.1 94 0.4 WSW 13 17 7 9 1020.5 1020.7 2.6
27/02:35pm 8.1 4.6 7.0 93 0.5 WSW 15 20 8 11 1020.9 1021.2 2.2
27/02:30pm 8.2 4.7 7.0 92 0.6 WSW 15 20 8 11 1020.9 1021.2 2.0
27/02:16pm 8.5 5.1 7.6 94 0.5 WSW 15 20 8 11 1020.8 1021.0 2.0
27/02:00pm 8.5 3.6 7.0 90 0.7 WSW 22 30 12 16 1020.8 1021.0 1.8
27/01:51pm 9.9 6.0 8.8 93 0.6 WNW 19 24 10 13 1020.9 1021.2 1.6
27/01:30pm 10.3 6.8 8.9 91 0.7 WNW 17 22 9 12 1020.9 1021.2 1.2
27/01:00pm 10.6 6.8 8.9 89 0.9 NW 19 24 10 13 1021.2 1021.4 1.0
27/12:33pm 10.6 8.6 8.7 88 1.0 WNW 9 15 5 8 1021.7 1022.0 1.0
27/12:30pm 10.4 7.9 8.2 86 1.1 WNW 11 15 6 8 1021.8 1022.1 1.0
27/12:00pm 9.7 7.1 7.6 87 1.1 NNW 11 15 6 8 1022.3 1022.5 1.0
27/11:30am 9.2 6.8 6.8 85 1.2 N 9 13 5 7 1022.8 1023.1 1.0
27/11:00am 8.9 6.3 6.2 83 1.3 NNW 9 11 5 6 1023.5 1023.8 0.8
27/10:30am 9.0 6.4 4.2 72 2.2 NNW 7 11 4 6 1023.4 1023.7 0.2
27/10:00am 9.0 6.2 2.3 63 3.0 NW 6 9 3 5 1023.3 1023.5 0.2
27/09:30am 9.1 6.9 3.3 67 2.7 WSW 4 7 2 4 1023.7 1024.0 0.2
27/09:00am 8.7 5.9 2.9 67 2.6 W 7 9 4 5 1024.0 1024.3 0.4
27/08:30am 8.8 6.5 3.0 67 2.6 W 4 7 2 4 1023.8 1024.1 0.4
27/08:00am 8.6 5.9 2.4 65 2.8 SW 6 7 3 4 1023.6 1023.9 0.4
27/07:30am 8.2 7.2 5.7 84 1.2 CALM 0 0 0 0 1023.6 1023.9 0.2
27/07:00am 7.9 6.3 6.2 89 0.8 WNW 4 7 2 4 1023.6 1023.9 0.2
27/06:30am 7.8 5.6 6.1 89 0.8 WNW 7 9 4 5 1023.5 1023.8 0.0
27/06:00am 7.7 5.6 6.0 89 0.8 WNW 6 7 3 4 1023.0 1023.3 0.0
27/05:30am 8.0 5.0 5.8 86 1.1 WNW 11 17 6 9 1022.7 1023.0 0.0
27/05:00am 8.0 4.3 6.3 89 0.8 W 15 17 8 9 1023.0 1023.3 0.0
27/04:30am 7.9 5.3 6.2 89 0.8 WNW 9 13 5 7 1022.8 1023.1 0.0
27/04:00am 7.9 5.4 6.4 90 0.7 NW 9 11 5 6 1022.7 1023.0 0.0
27/03:30am 8.0 6.4 6.5 90 0.7 N 4 9 2 5 1022.5 1022.7 0.0
27/03:00am 7.9 5.9 6.4 90 0.7 NNE 6 9 3 5 1021.9 1022.2 0.0
27/02:30am 7.4 5.8 6.3 93 0.5 ENE 4 9 2 5 1021.8 1022.1 0.0
27/02:00am 7.7 6.9 6.6 93 0.5 CALM 0 0 0 0 1022.6 1022.9 0.0
27/01:30am 7.6 6.8 6.4 92 0.6 CALM 0 4 0 2 1022.8 1023.1 0.0
27/01:00am 8.0 6.1 6.8 92 0.6 NNE 6 7 3 4 1023.1 1023.4 0.0
27/12:30am 7.9 7.1 6.7 92 0.6 CALM 0 7 0 4 1023.0 1023.3 0.0
27/12:00am 7.8 7.0 6.6 92 0.6 CALM 0 0 0 0 1023.5 1023.8 0.0
 
Date/Time
EST
Temp
°C
App
Temp
°C
Dew
Point
Rel
Hum
%
Delta-T
°C
Wind Press
QNH
hPa
Press
MSL
hPa
Rain
since 9 am
mm
Dir
 
Spd
km/h
Gust
km/h
Spd
kts
Gust
kts
26/11:30pm 7.5 5.3 6.3 92 0.6 ESE 7 9 4 5 1023.4 1023.7 0.0
26/11:00pm 7.6 5.6 6.4 92 0.6 SE 6 7 3 4 1023.3 1023.5 0.0
26/10:30pm 6.9 4.6 5.7 92 0.6 SE 7 9 4 5 1023.4 1023.7 0.0
26/10:00pm 6.7 4.5 5.2 90 0.7 SE 6 6 3 3 1023.6 1023.9 0.0
26/09:30pm 6.6 5.4 4.8 88 0.8 CALM 0 0 0 0 1023.8 1024.1 0.0
26/09:00pm 8.2 5.6 6.0 86 1.1 NW 9 9 5 5 1023.8 1024.1 0.0
26/08:30pm 8.7 6.1 6.2 84 1.2 W 9 13 5 7 1023.9 1024.2 0.0
26/08:00pm 8.9 6.2 5.6 80 1.6 WSW 9 13 5 7 1023.7 1024.0 0.0
26/07:30pm 8.8 6.2 5.9 82 1.4 W 9 15 5 8 1023.6 1023.9 0.0
26/07:00pm 7.9 5.0 4.7 80 1.5 W 9 13 5 7 1023.3 1023.5 0.0
26/06:30pm 8.9 5.0 5.3 78 1.7 W 15 17 8 9 1022.8 1023.1 0.0
26/06:00pm 9.7 6.2 5.5 75 2.0 W 13 15 7 8 1022.4 1022.6 0.0
26/05:30pm 11.3 7.4 5.4 67 2.9 W 15 17 8 9 1022.0 1022.3 0.0
26/05:00pm 12.2 8.2 4.7 60 3.6 W 15 20 8 11 1021.6 1021.8 0.0
26/04:30pm 13.9 9.0 5.0 55 4.4 W 20 26 11 14 1021.3 1021.5 0.0
26/04:00pm 14.5 9.1 2.4 44 5.7 W 20 28 11 15 1021.2 1021.4 0.0
26/03:30pm 14.8 8.9 3.9 48 5.3 WNW 24 30 13 16 1021.2 1021.4 0.0
26/03:00pm 14.9 9.8 4.3 49 5.2 W 20 26 11 14 1020.8 1021.0 0.0
26/02:30pm 14.6 9.7 4.9 52 4.8 W 20 26 11 14 1020.8 1021.0 0.0
26/02:00pm 14.4 9.4 6.3 58 4.1 W 22 35 12 19 1021.2 1021.4 0.0
26/01:30pm 14.2 8.1 4.8 53 4.6 WSW 26 35 14 19 1021.5 1021.7 0.0
26/01:00pm 14.5 8.0 4.5 51 4.9 WNW 28 35 15 19 1021.8 1022.1 0.0
26/12:30pm 14.2 8.0 4.2 51 4.9 W 26 37 14 20 1021.8 1022.1 0.0
26/12:00pm 13.7 7.4 3.8 51 4.8 W 26 33 14 18 1022.0 1022.3 0.0
26/11:30am 13.7 7.2 4.6 54 4.5 W 28 33 15 18 1022.3 1022.5 0.0
26/11:00am 12.9 6.5 5.1 59 3.8 WNW 28 33 15 18 1022.5 1022.7 0.0
26/10:30am 12.6 6.7 5.8 63 3.4 W 26 32 14 17 1022.5 1022.7 0.0
26/10:00am 11.3 6.3 4.5 63 3.3 W 20 33 11 18 1022.4 1022.6 0.0
26/09:30am 9.8 4.9 5.2 73 2.2 W 20 26 11 14 1022.7 1023.0 0.0
26/09:00am 8.8 4.5 5.2 78 1.7 W 17 22 9 12 1022.7 1023.0 0.2
26/08:30am 7.6 4.0 5.2 85 1.1 WNW 13 19 7 10 1022.5 1022.7 0.2
26/08:01am 6.6 2.6 4.8 88 0.8 W 15 19 8 10 1022.2 1022.4 0.2
26/08:00am 6.7 2.8 5.2 90 0.7 W 15 19 8 10 1022.2 1022.4 0.2
26/07:30am 5.6 1.5 4.6 93 0.5 WNW 15 20 8 11 1021.9 1022.2 0.2
26/07:00am 4.9 1.9 3.9 93 0.4 W 9 13 5 7 1021.6 1021.8 0.2
26/06:30am 5.1 1.4 4.4 95 0.3 W 13 17 7 9 1021.3 1021.5 0.2
26/06:00am 5.1 1.4 4.4 95 0.3 WNW 13 19 7 10 1021.0 1021.3 0.2
26/05:30am 5.1 1.0 4.4 95 0.3 W 15 20 8 11 1020.8 1021.0 0.2
26/05:00am 5.0 0.5 4.3 95 0.3 WNW 17 20 9 11 1020.7 1020.9 0.2
26/04:30am 5.1 1.4 4.4 95 0.3 WNW 13 17 7 9 1020.5 1020.7 0.2
26/04:00am 5.1 1.3 4.1 93 0.5 WNW 13 20 7 11 1020.4 1020.6 0.2
26/03:30am 5.3 1.6 4.3 93 0.5 W 13 17 7 9 1020.4 1020.6 0.2
26/03:00am 5.5 1.8 4.5 93 0.5 W 13 19 7 10 1020.4 1020.6 0.2
26/02:30am 5.7 2.0 4.7 93 0.5 W 13 15 7 8 1020.6 1020.8 0.2
26/02:00am 5.9 2.3 4.9 93 0.5 W 13 20 7 11 1021.0 1021.3 0.2
26/01:30am 6.1 1.7 4.7 91 0.6 WNW 17 22 9 12 1021.0 1021.3 0.2
26/01:00am 6.6 1.9 5.1 90 0.7 W 19 26 10 14 1021.3 1021.5 0.2
26/12:30am 7.0 2.4 5.8 92 0.6 W 19 26 10 14 1021.5 1021.7 0.2
26/12:00am 7.0 1.5 5.9 93 0.5 W 24 33 13 18 1021.3 1021.5 0.2
 
Date/Time
EST
Temp
°C
App
Temp
°C
Dew
Point
Rel
Hum
%
Delta-T
°C
Wind Press
QNH
hPa
Press
MSL
hPa
Rain
since 9 am
mm
Dir
 
Spd
km/h
Gust
km/h
Spd
kts
Gust
kts
25/11:30pm 7.2 2.7 6.3 94 0.4 W 19 24 10 13 1021.6 1021.8 0.2
25/11:00pm 7.0 1.9 6.1 94 0.4 W 22 30 12 16 1021.7 1022.0 0.2
25/10:30pm 7.1 3.4 6.4 95 0.3 W 15 20 8 11 1021.8 1022.1 0.2
25/10:00pm 7.1 2.5 5.7 91 0.7 WNW 19 20 10 11 1021.8 1022.1 0.2
25/09:30pm 7.3 3.9 6.1 92 0.6 W 13 15 7 8 1022.0 1022.3 0.2
25/09:02pm 7.6 3.9 6.2 91 0.7 W 15 20 8 11 1021.9 1022.2 0.2
25/09:00pm 7.4 3.6 5.9 90 0.7 W 15 20 8 11 1021.9 1022.2 0.2
25/08:30pm 7.5 3.8 6.3 92 0.6 WSW 15 20 8 11 1021.8 1022.1 0.2
25/08:00pm 7.7 4.6 5.5 86 1.0 W 11 15 6 8 1021.9 1022.2 0.2
25/07:30pm 8.9 4.8 6.0 82 1.4 W 17 22 9 12 1021.7 1022.0 0.2

Other Formats:

Comma delimited format used in spreadsheet applications
http://www.bom.gov.au/fwo/IDN60801/IDN60801.94588.axf

JavaScript Object Notation format (JSON) in row-major order
http://www.bom.gov.au/fwo/IDN60801/IDN60801.94588.json